createdAt,value
2023-05-12T00:01:56.733Z,9.35
2023-05-12T00:06:59.389Z,9.22
2023-05-12T00:12:02.525Z,9.16
2023-05-12T00:17:06.633Z,9.14
2023-05-12T00:22:11.346Z,9.13
2023-05-12T00:27:14.637Z,9.04
2023-05-12T00:32:17.294Z,8.92
2023-05-12T00:37:20.331Z,8.87
2023-05-12T00:42:22.935Z,8.84
2023-05-12T00:47:25.885Z,8.77
2023-05-12T00:52:28.721Z,8.70
2023-05-12T00:57:33.849Z,8.66
2023-05-12T01:02:37.112Z,8.61
2023-05-12T01:07:40.404Z,8.56
2023-05-12T01:12:42.974Z,8.48
2023-05-12T01:17:54.300Z,8.40
2023-05-12T01:22:59.376Z,8.33
2023-05-12T01:28:03.528Z,8.27
2023-05-12T01:33:06.252Z,8.20
2023-05-12T01:38:08.906Z,8.14
2023-05-12T01:43:11.470Z,7.95
2023-05-12T01:48:14.465Z,7.76
2023-05-12T01:53:17.016Z,7.59
2023-05-12T01:58:20.478Z,7.44
2023-05-12T02:03:23.375Z,7.32
2023-05-12T02:08:26.438Z,7.25
2023-05-12T02:13:29.293Z,7.19
2023-05-12T02:18:31.963Z,7.08
2023-05-12T02:23:34.665Z,6.92
2023-05-12T02:28:37.641Z,6.79
2023-05-12T02:33:40.261Z,6.70
2023-05-12T02:38:44.114Z,6.60
2023-05-12T02:43:46.648Z,6.44
2023-05-12T02:48:49.210Z,6.36
2023-05-12T02:53:51.852Z,6.41
2023-05-12T02:58:54.453Z,6.43
2023-05-12T03:03:57.051Z,6.53
2023-05-12T03:08:59.852Z,6.98
2023-05-12T03:14:02.418Z,7.79
2023-05-12T03:19:05.353Z,8.68
2023-05-12T03:24:08.681Z,9.50
2023-05-12T03:29:11.279Z,10.36
2023-05-12T03:34:13.806Z,11.24
2023-05-12T03:39:16.375Z,12.06
2023-05-12T03:44:19.007Z,12.94
2023-05-12T03:49:21.765Z,13.70
2023-05-12T03:54:24.616Z,14.38
2023-05-12T03:59:31.048Z,14.85
2023-05-12T04:04:33.567Z,15.28
2023-05-12T04:09:36.241Z,15.81
2023-05-12T04:14:43.160Z,16.44
2023-05-12T04:19:46.778Z,17.06
2023-05-12T04:24:49.660Z,17.82
2023-05-12T04:29:52.249Z,18.63
2023-05-12T04:34:56.592Z,19.20
2023-05-12T04:39:59.138Z,19.76
2023-05-12T04:45:01.990Z,20.29
2023-05-12T04:50:05.784Z,20.75
2023-05-12T04:55:09.452Z,21.45
2023-05-12T05:00:13.135Z,22.16
2023-05-12T05:05:15.948Z,22.90
2023-05-12T05:10:18.553Z,23.22
2023-05-12T05:15:21.767Z,23.04
2023-05-12T05:20:28.773Z,23.18
2023-05-12T05:25:31.870Z,23.94
2023-05-12T05:30:34.468Z,24.02
2023-05-12T05:35:37.308Z,24.04
2023-05-12T05:40:52.314Z,24.26
2023-05-12T05:45:58.222Z,24.48
2023-05-12T05:51:00.785Z,24.54
2023-05-12T05:56:05.380Z,24.53
2023-05-12T06:01:08.110Z,24.39
2023-05-12T06:06:10.828Z,24.52
2023-05-12T06:11:13.757Z,25.04
2023-05-12T06:16:17.259Z,25.51
2023-05-12T06:21:19.985Z,25.16
2023-05-12T06:26:22.622Z,24.96
2023-05-12T06:31:25.251Z,24.73
2023-05-12T06:36:28.895Z,25.02
2023-05-12T06:41:33.615Z,25.48
2023-05-12T06:46:36.423Z,25.99
2023-05-12T06:51:39.185Z,26.21
2023-05-12T06:56:41.782Z,26.30
2023-05-12T07:01:44.454Z,26.59
2023-05-12T07:06:47.163Z,26.52
2023-05-12T07:11:49.902Z,26.33
2023-05-12T07:16:52.612Z,25.93
2023-05-12T07:21:55.418Z,25.86
2023-05-12T07:26:58.445Z,26.08
2023-05-12T07:32:01.056Z,25.85
2023-05-12T07:37:04.354Z,26.13
2023-05-12T07:42:07.252Z,26.34
2023-05-12T07:47:10.014Z,26.48
2023-05-12T07:52:12.787Z,26.95
2023-05-12T07:57:15.660Z,26.61
2023-05-12T08:02:18.457Z,26.34
2023-05-12T08:07:21.372Z,26.23
2023-05-12T08:12:24.374Z,26.29
2023-05-12T08:17:29.159Z,26.25
2023-05-12T08:22:32.466Z,26.16
2023-05-12T08:27:35.005Z,26.24
2023-05-12T08:32:37.996Z,26.20
2023-05-12T08:37:40.658Z,26.08
2023-05-12T08:42:55.858Z,25.92
2023-05-12T08:47:59.903Z,25.89
2023-05-12T08:53:05.725Z,25.93
2023-05-12T08:58:09.682Z,25.73
2023-05-12T09:03:15.295Z,25.32
2023-05-12T09:08:18.464Z,25.33
2023-05-12T09:13:36.546Z,25.55
2023-05-12T09:18:58.770Z,25.71
2023-05-12T09:24:08.942Z,25.79
2023-05-12T09:29:20.758Z,26.01
2023-05-12T09:34:37.451Z,26.01
2023-05-12T09:39:40.613Z,26.07
2023-05-12T09:44:43.593Z,26.04
2023-05-12T09:49:52.199Z,26.22
2023-05-12T09:54:54.880Z,26.42
2023-05-12T09:59:57.575Z,26.61
2023-05-12T10:05:06.729Z,26.68
2023-05-12T10:10:16.199Z,26.37
2023-05-12T10:15:20.572Z,26.07
2023-05-12T10:20:24.908Z,25.91
2023-05-12T10:25:29.159Z,25.11
2023-05-12T10:30:32.770Z,24.53
2023-05-12T10:35:38.197Z,24.02
2023-05-12T10:41:01.244Z,23.82
2023-05-12T10:46:13.408Z,23.46
2023-05-12T10:51:43.464Z,23.14
2023-05-12T10:56:46.862Z,22.91
2023-05-12T11:02:26.192Z,22.83
2023-05-12T11:07:35.418Z,22.51
2023-05-12T11:12:38.509Z,22.53
2023-05-12T11:17:41.499Z,22.37
2023-05-12T11:22:44.285Z,22.21
2023-05-12T11:27:50.687Z,22.07
2023-05-12T11:33:03.781Z,22.00
2023-05-12T11:38:17.187Z,21.92
2023-05-12T11:43:24.654Z,22.18
2023-05-12T11:48:36.094Z,22.38
2023-05-12T11:53:41.145Z,22.37
2023-05-12T11:58:58.810Z,22.44
2023-05-12T12:04:01.564Z,22.57
2023-05-12T12:09:04.316Z,22.62
2023-05-12T12:14:08.557Z,22.44
2023-05-12T12:19:11.272Z,22.46
2023-05-12T12:24:14.278Z,22.40
2023-05-12T12:29:17.872Z,22.48
2023-05-12T12:34:20.587Z,22.52
2023-05-12T12:39:23.391Z,22.60
2023-05-12T12:44:26.154Z,22.61
2023-05-12T12:49:28.936Z,22.60
2023-05-12T12:54:31.563Z,22.63
2023-05-12T12:59:34.098Z,22.68
2023-05-12T13:04:37.009Z,22.76
2023-05-12T13:09:39.623Z,22.81
2023-05-12T13:14:42.225Z,22.72
2023-05-12T13:19:44.788Z,22.63
2023-05-12T13:24:48.014Z,22.43
2023-05-12T13:29:50.593Z,22.41
2023-05-12T13:34:53.473Z,22.59
2023-05-12T13:39:56.369Z,22.69
2023-05-12T13:44:59.027Z,22.42
2023-05-12T13:50:01.883Z,22.22
2023-05-12T13:55:05.428Z,22.12
2023-05-12T14:00:09.126Z,22.05
2023-05-12T14:05:12.044Z,22.03
2023-05-12T14:10:15.197Z,22.01
2023-05-12T14:20:23.292Z,22.11
2023-05-12T14:25:26.187Z,22.12
2023-05-12T14:30:29.254Z,22.09
2023-05-12T14:35:32.612Z,22.08
2023-05-12T14:40:35.231Z,22.03
2023-05-12T14:45:38.289Z,21.90
2023-05-12T14:50:42.809Z,21.76
2023-05-12T14:55:45.716Z,21.78
2023-05-12T15:00:51.256Z,21.87
2023-05-12T15:06:05.510Z,21.96
2023-05-12T15:11:10.467Z,21.89
2023-05-12T15:16:13.584Z,21.74
2023-05-12T15:21:17.471Z,21.62
2023-05-12T15:26:32.790Z,21.58
2023-05-12T15:31:37.515Z,21.66
2023-05-12T15:36:40.264Z,21.72
2023-05-12T15:41:43.238Z,21.79
2023-05-12T15:46:46.380Z,21.90
2023-05-12T15:51:49.046Z,21.97
2023-05-12T15:56:51.601Z,21.91
2023-05-12T16:01:55.434Z,21.86
2023-05-12T16:06:58.105Z,21.83
2023-05-12T16:12:01.243Z,21.81
2023-05-12T16:17:04.198Z,21.84
2023-05-12T16:22:06.812Z,21.89
2023-05-12T16:27:09.426Z,21.88
2023-05-12T16:32:12.109Z,21.83
2023-05-12T16:37:14.810Z,21.78
2023-05-12T16:42:17.488Z,21.65
2023-05-12T16:47:20.760Z,21.42
2023-05-12T16:52:23.472Z,21.16
2023-05-12T16:57:26.848Z,20.85
2023-05-12T17:02:29.511Z,20.60
2023-05-12T17:07:35.161Z,20.42
2023-05-12T17:12:37.876Z,20.25
2023-05-12T17:17:40.636Z,20.11
2023-05-12T17:22:47.156Z,19.94
2023-05-12T17:27:50.332Z,19.76
2023-05-12T17:32:53.578Z,19.61
2023-05-12T17:37:56.366Z,19.40
2023-05-12T17:42:59.080Z,19.15
2023-05-12T17:48:02.624Z,18.95
2023-05-12T17:53:06.662Z,18.78
2023-05-12T17:58:09.260Z,18.61
2023-05-12T18:03:12.115Z,18.45
2023-05-12T18:08:14.850Z,18.30
2023-05-12T18:13:17.476Z,18.15
2023-05-12T18:18:20.116Z,18.03
2023-05-12T18:23:22.722Z,17.88
2023-05-12T18:28:25.329Z,17.74
2023-05-12T18:33:28.019Z,17.61
2023-05-12T18:38:30.606Z,17.45
2023-05-12T18:43:34.830Z,17.24
2023-05-12T18:48:37.494Z,17.08
2023-05-12T18:53:40.288Z,16.90
2023-05-12T18:58:42.910Z,16.73
2023-05-12T19:03:45.559Z,16.58
2023-05-12T19:08:48.508Z,16.44
2023-05-12T19:13:52.299Z,16.34
2023-05-12T19:18:55.450Z,16.20
2023-05-12T19:23:58.184Z,16.02
2023-05-12T19:29:02.066Z,15.84
2023-05-12T19:34:04.845Z,15.64
2023-05-12T19:39:07.386Z,15.40
2023-05-12T19:44:10.043Z,15.19
2023-05-12T19:49:13.899Z,14.99
2023-05-12T19:54:16.560Z,14.80
2023-05-12T19:59:19.202Z,14.60
2023-05-12T20:04:23.336Z,14.42
2023-05-12T20:09:26.107Z,14.28
2023-05-12T20:14:28.815Z,14.15
2023-05-12T20:19:33.477Z,14.08
2023-05-12T20:24:36.379Z,14.01
2023-05-12T20:29:39.476Z,13.94
2023-05-12T20:34:42.238Z,13.83
2023-05-12T20:39:44.994Z,13.69
2023-05-12T20:44:47.627Z,13.57
2023-05-12T20:49:57.002Z,13.36
2023-05-12T20:54:59.947Z,13.12
2023-05-12T21:00:02.868Z,12.96
2023-05-12T21:05:06.223Z,12.91
2023-05-12T21:10:09.334Z,12.87
2023-05-12T21:15:13.048Z,12.72
2023-05-12T21:20:15.589Z,12.65
2023-05-12T21:25:18.219Z,12.57
2023-05-12T21:30:21.605Z,12.45
2023-05-12T21:35:24.539Z,12.29
2023-05-12T21:40:27.157Z,12.19
2023-05-12T21:45:29.833Z,12.05
2023-05-12T21:50:32.389Z,11.84
2023-05-12T21:55:34.971Z,11.63
2023-05-12T22:00:38.839Z,11.44
2023-05-12T22:05:41.433Z,11.29
2023-05-12T22:10:44.299Z,11.22
2023-05-12T22:15:46.894Z,11.08
2023-05-12T22:20:49.553Z,10.97
2023-05-12T22:25:52.300Z,10.92
2023-05-12T22:30:54.884Z,10.78
2023-05-12T22:36:01.354Z,10.55
2023-05-12T22:41:04.056Z,10.37
2023-05-12T22:46:09.458Z,10.27
2023-05-12T22:51:12.202Z,10.16
2023-05-12T22:56:15.822Z,10.16
2023-05-12T23:01:18.834Z,10.09
2023-05-12T23:06:21.473Z,9.94
2023-05-12T23:11:24.128Z,9.81
2023-05-12T23:16:26.978Z,9.66
2023-05-12T23:21:29.670Z,9.58
2023-05-12T23:26:32.649Z,9.48
2023-05-12T23:31:35.271Z,9.43
2023-05-12T23:36:38.058Z,9.46
2023-05-12T23:41:40.796Z,9.41
2023-05-12T23:46:43.673Z,9.30
2023-05-12T23:51:46.583Z,9.26
2023-05-12T23:56:49.231Z,9.25
